Terminal Aerodrome Forecast
Issued by NWS New Orleans/Baton Rouge, LA

Home | Current Version | Previous Version | Text Only | Print | Product List | Glossary On
Versions: 1 2 3 4 5 6 7 8 9 10 11 12 13 14 15
000
FTUS44 KLIX 231733
TAFBTR
TAF
KBTR 231733Z 2318/2418 04005KT P6SM SCT035
     FM232100 18004KT P6SM VCTS BKN040CB
     FM232300 VRB03KT P6SM SCT050 BKN250
     FM241300 VRB03KT P6SM BKN040 PROB30 2415/2418 4SM TSRA
      OVC025CB=

USA.gov is the U.S. government's official web portal to all federal, state and local government web resources and services.